Weather History for Pine River, MN

Change the Weather History Date:

Monday, April 14, 2014

  Actual Average Record
Temperature  
Mean Temperature 22 °F -  
Max Temperature 28 °F 50 °F 84 °F (2003)
Min Temperature 17 °F 29 °F 15 °F (2008)
Degree Days  
Heating Degree Days 42    
Moisture  
Dew Point 10 °F    
Average Humidity 58    
Maximum Humidity 74    
Minimum Humidity 37    
Precipitation  
Precipitation 0.00 in - - ()
Sea Level Pressure  
Sea Level Pressure 30.11 in    
Wind  
Wind Speed 13 mph (NNW)    
Max Wind Speed 22 mph    
Max Gust Speed 31 mph    
Visibility 10 miles    
Events Snow    
Averages and records for this station are not official NWS values.
T = Trace of Precipitation, MM = Missing Value Source: NWS Daily Summary

Daily Weather History Graph

Daily Weather History Graph

Search for Another Location

Airport:

Trip Planner

Search our weather history database for the weather conditions in past years. The results will help you decide how hot, cold, wet, or windy it might be!

Date:

Astronomy

Apr. 14, 2014 Rise Set
Actual Time 6:31 AM CDT 8:04 PM CDT
Civil Twilight 6:00 AM CDT 8:36 PM CDT
Nautical Twilight 5:21 AM CDT 9:14 PM CDT
Astronomical Twilight 4:40 AM CDT 9:56 PM CDT
Moon 7:43 PM CDT (4/14) 6:07 AM CDT (4/14)
Length of Visible Light 14h 35m
Length of Day
13h 32m
Full, 100% of the Moon is Illuminated
Apr 14
Full
Apr 15
Full
Apr 22
Last Quarter
Apr 29
New
May 6
First Quarter

Hourly Weather History & Observations

Time (CDT) Temp. Windchill Dew Point Humidity Pressure Visibility Wind Dir Wind Speed Gust Speed Precip Events Conditions
12:13 AM 26.6 °F 15.2 °F 15.8 °F 64% 30.09 in 10.0 mi North 13.8 mph - N/A   Overcast
12:32 AM 26.6 °F 13.8 °F 17.6 °F 69% 30.09 in 10.0 mi North 17.3 mph 25.3 mph N/A   Overcast
12:53 AM 26.6 °F 14.3 °F 15.8 °F 64% 30.09 in 10.0 mi North 16.1 mph 25.3 mph N/A Snow Light Snow
1:12 AM 24.8 °F 12.9 °F 15.8 °F 69% 30.10 in 10.0 mi North 13.8 mph 29.9 mph N/A Snow Light Snow
1:32 AM 24.8 °F 11.9 °F 15.8 °F 69% 30.09 in 10.0 mi NNW 16.1 mph 23.0 mph N/A Snow Light Snow
1:53 AM 24.8 °F 11.5 °F 15.8 °F 69% 30.10 in 7.0 mi North 17.3 mph 23.0 mph N/A Snow Light Snow
2:13 AM 24.8 °F 13.4 °F 15.8 °F 69% 30.10 in 10.0 mi North 12.7 mph - N/A Snow Light Snow
2:33 AM 24.8 °F 11.9 °F 15.8 °F 69% 30.09 in 10.0 mi North 16.1 mph 19.6 mph N/A Snow Light Snow
2:53 AM 24.8 °F 11.9 °F 14.0 °F 64% 30.08 in 10.0 mi North 16.1 mph 21.9 mph N/A   Overcast
3:13 AM 23.0 °F 10.1 °F 14.0 °F 68% 30.08 in 10.0 mi NNW 15.0 mph 21.9 mph N/A   Mostly Cloudy
3:33 AM 21.2 °F 7.3 °F 12.2 °F 68% 30.08 in 10.0 mi NNW 16.1 mph 21.9 mph N/A   Clear
4:12 AM 21.2 °F 9.5 °F 12.2 °F 68% 30.08 in 10.0 mi NNW 11.5 mph 18.4 mph N/A   Clear
4:33 AM 21.2 °F 11.7 °F 12.2 °F 68% 30.08 in 10.0 mi NNW 8.1 mph - N/A   Clear
4:53 AM 19.4 °F 6.6 °F 12.2 °F 74% 30.07 in 10.0 mi NNW 12.7 mph 18.4 mph N/A   Clear
5:12 AM 19.4 °F 8.6 °F 12.2 °F 74% 30.08 in 10.0 mi NNW 9.2 mph - N/A   Clear
5:33 AM 19.4 °F 6.6 °F 12.2 °F 74% 30.08 in 10.0 mi NNW 12.7 mph 19.6 mph N/A   Clear
5:53 AM 19.4 °F 9.5 °F 12.2 °F 74% 30.08 in 10.0 mi NNW 8.1 mph 17.3 mph N/A   Clear
6:13 AM 19.4 °F 8.6 °F 12.2 °F 74% 30.09 in 10.0 mi NNW 9.2 mph 17.3 mph N/A   Clear
6:33 AM 19.4 °F 8.6 °F 12.2 °F 74% 30.10 in 10.0 mi NNW 9.2 mph - N/A   Clear
6:53 AM 19.4 °F 9.5 °F 12.2 °F 74% 30.10 in 10.0 mi NNW 8.1 mph - N/A   Clear
7:32 AM 19.4 °F 10.4 °F 12.2 °F 74% 30.12 in 10.0 mi NNW 6.9 mph - N/A   Clear
7:53 AM 19.4 °F 9.5 °F 10.4 °F 68% 30.12 in 10.0 mi NNW 8.1 mph 16.1 mph N/A   Clear
8:13 AM 19.4 °F 7.9 °F 10.4 °F 68% 30.13 in 10.0 mi NW 10.4 mph - N/A   Clear
8:31 AM 21.2 °F 10.1 °F 10.4 °F 63% 30.13 in 10.0 mi NNW 10.4 mph - N/A   Clear
8:53 AM 21.2 °F 10.1 °F 12.2 °F 68% 30.14 in 10.0 mi NNW 10.4 mph - N/A   Clear
9:13 AM 23.0 °F 11.1 °F 10.4 °F 59% 30.14 in 10.0 mi North 12.7 mph 18.4 mph N/A   Clear
9:33 AM 24.8 °F 13.4 °F 10.4 °F 54% 30.14 in 10.0 mi NNW 12.7 mph - N/A   Clear
9:53 AM 24.8 °F 16.1 °F 10.4 °F 54% 30.14 in 10.0 mi NNW 8.1 mph 21.9 mph N/A   Clear
10:12 AM 24.8 °F 14.6 °F 8.6 °F 50% 30.14 in 10.0 mi NNW 10.4 mph 18.4 mph N/A   Clear
10:33 AM 24.8 °F 13.4 °F 8.6 °F 50% 30.14 in 10.0 mi NNW 12.7 mph 20.7 mph N/A   Clear
10:53 AM 24.8 °F 11.5 °F 6.8 °F 46% 30.13 in 10.0 mi NNW 17.3 mph 24.2 mph N/A   Clear
11:12 AM 26.6 °F 13.4 °F 6.8 °F 43% 30.13 in 10.0 mi NW 18.4 mph 24.2 mph N/A   Clear
11:33 AM 26.6 °F 14.7 °F 6.8 °F 43% 30.13 in 10.0 mi NNW 15.0 mph 24.2 mph N/A   Clear
11:52 AM 26.6 °F 13.8 °F 5.0 °F 40% 30.13 in 10.0 mi NNW 17.3 mph 31.1 mph N/A   Clear
12:12 PM 28.4 °F 15.4 °F 5.0 °F 37% 30.12 in 10.0 mi NNW 19.6 mph 28.8 mph N/A   Clear
12:33 PM 28.4 °F 14.7 °F 5.0 °F 37% 30.12 in 10.0 mi NNW 21.9 mph 27.6 mph N/A   Clear
1:12 PM 28.4 °F 15.8 °F 5.0 °F 37% 30.11 in 10.0 mi NNW 18.4 mph 26.5 mph N/A   Scattered Clouds
1:33 PM 28.4 °F 16.6 °F 6.8 °F 40% 30.11 in 10.0 mi NNW 16.1 mph 26.5 mph N/A   Scattered Clouds
1:52 PM 28.4 °F 17.0 °F 6.8 °F 40% 30.11 in 10.0 mi North 15.0 mph 23.0 mph N/A   Scattered Clouds
2:12 PM 28.4 °F 19.1 °F 6.8 °F 40% 30.11 in 10.0 mi North 10.4 mph 23.0 mph N/A   Mostly Cloudy
2:33 PM 28.4 °F 18.5 °F 6.8 °F 40% 30.11 in 10.0 mi NNW 11.5 mph 18.4 mph N/A   Scattered Clouds
2:53 PM 28.4 °F 18.0 °F 6.8 °F 40% 30.11 in 10.0 mi NW 12.7 mph 17.3 mph N/A   Scattered Clouds
3:12 PM 28.4 °F 16.6 °F 6.8 °F 40% 30.11 in 10.0 mi NNW 16.1 mph 23.0 mph N/A   Scattered Clouds
3:33 PM 28.4 °F 19.7 °F 8.6 °F 43% 30.11 in 10.0 mi NNW 9.2 mph 20.7 mph N/A   Scattered Clouds
4:13 PM 28.4 °F 17.0 °F 10.4 °F 47% 30.10 in 10.0 mi NNW 15.0 mph 23.0 mph N/A   Mostly Cloudy
4:32 PM 26.6 °F 16.2 °F 8.6 °F 47% 30.10 in 10.0 mi NNW 11.5 mph 21.9 mph N/A   Mostly Cloudy
4:53 PM 28.4 °F 19.7 °F 10.4 °F 47% 30.09 in 10.0 mi NNW 9.2 mph - N/A   Scattered Clouds
5:12 PM 26.6 °F 17.5 °F 10.4 °F 51% 30.10 in 10.0 mi NNW 9.2 mph 16.1 mph N/A   Scattered Clouds
5:33 PM 24.8 °F 14.6 °F 14.0 °F 64% 30.10 in 10.0 mi NNW 10.4 mph - N/A   Scattered Clouds
5:52 PM 26.6 °F 13.8 °F 12.2 °F 55% 30.10 in 10.0 mi NNW 17.3 mph 23.0 mph N/A   Mostly Cloudy
6:13 PM 24.8 °F 16.1 °F 15.8 °F 69% 30.10 in 10.0 mi NNW 8.1 mph 18.4 mph N/A   Mostly Cloudy
6:32 PM 24.8 °F 14.6 °F 12.2 °F 59% 30.10 in 10.0 mi NNW 10.4 mph 18.4 mph N/A   Scattered Clouds
6:52 PM 24.8 °F 14.0 °F 10.4 °F 54% 30.10 in 10.0 mi NNW 11.5 mph 20.7 mph N/A   Scattered Clouds
7:13 PM 24.8 °F 14.0 °F 8.6 °F 50% 30.11 in 10.0 mi NNW 11.5 mph 21.9 mph N/A   Clear
7:33 PM 24.8 °F 14.6 °F 8.6 °F 50% 30.11 in 10.0 mi NW 10.4 mph 16.1 mph N/A   Clear
7:53 PM 23.0 °F 11.7 °F 8.6 °F 54% 30.12 in 10.0 mi NNW 11.5 mph 18.4 mph N/A   Scattered Clouds
8:13 PM 23.0 °F 13.9 °F 8.6 °F 54% 30.12 in 10.0 mi NW 8.1 mph 16.1 mph N/A   Scattered Clouds
8:33 PM 21.2 °F 10.9 °F 8.6 °F 58% 30.13 in 10.0 mi NW 9.2 mph - N/A   Clear
8:52 PM 21.2 °F 9.5 °F 8.6 °F 58% 30.14 in 10.0 mi NNW 11.5 mph 18.4 mph N/A   Clear
9:13 PM 21.2 °F 10.1 °F 8.6 °F 58% 30.14 in 10.0 mi NW 10.4 mph - N/A   Clear
9:31 PM 19.4 °F 8.6 °F 6.8 °F 58% 30.14 in 10.0 mi NNW 9.2 mph - N/A   Clear
9:52 PM 19.4 °F 9.5 °F 6.8 °F 58% 30.15 in 10.0 mi NNW 8.1 mph - N/A   Clear
10:13 PM 19.4 °F 9.5 °F 6.8 °F 58% 30.15 in 10.0 mi NW 8.1 mph - N/A   Clear
10:32 PM 19.4 °F 10.4 °F 6.8 °F 58% 30.15 in 10.0 mi NW 6.9 mph - N/A   Clear
10:53 PM 19.4 °F 10.4 °F 6.8 °F 58% 30.15 in 10.0 mi NW 6.9 mph - N/A   Clear
11:13 PM 17.6 °F 8.2 °F 6.8 °F 63% 30.15 in 10.0 mi NNW 6.9 mph - N/A   Clear
11:33 PM 17.6 °F 9.3 °F 6.8 °F 63% 30.15 in 10.0 mi NNW 5.8 mph - N/A   Clear
11:53 PM 17.6 °F 9.3 °F 6.8 °F 63% 30.15 in 10.0 mi NW 5.8 mph - N/A   Clear